sensor_id;sensor_type;location;lat;lon;timestamp;P1;durP1;ratioP1;P2;durP2;ratioP2
12480;SDS011;6305;48.398;11.762;2023-05-08T00:00:33;8.32;;;6.65;;
12480;SDS011;6305;48.398;11.762;2023-05-08T00:03:02;8.85;;;7.03;;
12480;SDS011;6305;48.398;11.762;2023-05-08T00:05:29;9.52;;;6.80;;
12480;SDS011;6305;48.398;11.762;2023-05-08T00:07:56;10.20;;;6.35;;
12480;SDS011;6305;48.398;11.762;2023-05-08T00:10:26;8.70;;;6.72;;
12480;SDS011;6305;48.398;11.762;2023-05-08T00:12:53;10.77;;;7.15;;
12480;SDS011;6305;48.398;11.762;2023-05-08T00:15:20;8.98;;;6.85;;
12480;SDS011;6305;48.398;11.762;2023-05-08T00:17:47;10.20;;;6.45;;
12480;SDS011;6305;48.398;11.762;2023-05-08T00:20:15;8.70;;;6.30;;
12480;SDS011;6305;48.398;11.762;2023-05-08T00:22:42;9.73;;;7.00;;
12480;SDS011;6305;48.398;11.762;2023-05-08T00:25:09;10.52;;;6.25;;
12480;SDS011;6305;48.398;11.762;2023-05-08T00:27:36;9.23;;;7.15;;
12480;SDS011;6305;48.398;11.762;2023-05-08T00:30:04;10.18;;;6.53;;
12480;SDS011;6305;48.398;11.762;2023-05-08T00:32:32;8.98;;;6.35;;
12480;SDS011;6305;48.398;11.762;2023-05-08T00:34:59;10.55;;;6.93;;
12480;SDS011;6305;48.398;11.762;2023-05-08T00:37:27;9.57;;;6.75;;
12480;SDS011;6305;48.398;11.762;2023-05-08T00:39:54;7.88;;;6.03;;
12480;SDS011;6305;48.398;11.762;2023-05-08T00:42:21;9.65;;;7.25;;
12480;SDS011;6305;48.398;11.762;2023-05-08T00:44:48;8.77;;;6.72;;
12480;SDS011;6305;48.398;11.762;2023-05-08T00:47:15;8.85;;;6.65;;
12480;SDS011;6305;48.398;11.762;2023-05-08T00:49:42;9.18;;;6.63;;
12480;SDS011;6305;48.398;11.762;2023-05-08T00:52:10;7.75;;;6.10;;
12480;SDS011;6305;48.398;11.762;2023-05-08T00:54:39;9.10;;;7.05;;
12480;SDS011;6305;48.398;11.762;2023-05-08T00:57:06;8.48;;;6.78;;
12480;SDS011;6305;48.398;11.762;2023-05-08T00:59:33;7.95;;;6.45;;
12480;SDS011;6305;48.398;11.762;2023-05-08T01:02:01;10.18;;;7.10;;
12480;SDS011;6305;48.398;11.762;2023-05-08T01:04:29;8.00;;;6.18;;
12480;SDS011;6305;48.398;11.762;2023-05-08T01:06:56;8.38;;;6.53;;
12480;SDS011;6305;48.398;11.762;2023-05-08T01:09:24;8.10;;;6.75;;
12480;SDS011;6305;48.398;11.762;2023-05-08T01:12:02;9.95;;;6.55;;
12480;SDS011;6305;48.398;11.762;2023-05-08T01:14:41;9.27;;;6.85;;
12480;SDS011;6305;48.398;11.762;2023-05-08T01:17:22;8.85;;;6.72;;
12480;SDS011;6305;48.398;11.762;2023-05-08T01:20:06;8.25;;;6.63;;
12480;SDS011;6305;48.398;11.762;2023-05-08T01:22:47;9.27;;;6.93;;
12480;SDS011;6305;48.398;11.762;2023-05-08T01:25:40;11.20;;;7.25;;
12480;SDS011;6305;48.398;11.762;2023-05-08T01:28:37;8.93;;;6.60;;
12480;SDS011;6305;48.398;11.762;2023-05-08T01:31:20;10.85;;;7.35;;
12480;SDS011;6305;48.398;11.762;2023-05-08T01:33:55;10.20;;;7.70;;
12480;SDS011;6305;48.398;11.762;2023-05-08T01:36:28;9.68;;;7.45;;
12480;SDS011;6305;48.398;11.762;2023-05-08T01:39:03;10.32;;;6.97;;
12480;SDS011;6305;48.398;11.762;2023-05-08T01:41:39;11.48;;;7.63;;
12480;SDS011;6305;48.398;11.762;2023-05-08T01:44:12;10.15;;;7.57;;
12480;SDS011;6305;48.398;11.762;2023-05-08T01:46:43;11.98;;;8.15;;
12480;SDS011;6305;48.398;11.762;2023-05-08T01:49:16;12.25;;;8.27;;
12480;SDS011;6305;48.398;11.762;2023-05-08T01:51:52;11.93;;;8.20;;
12480;SDS011;6305;48.398;11.762;2023-05-08T01:54:24;10.90;;;8.13;;
12480;SDS011;6305;48.398;11.762;2023-05-08T01:56:55;10.88;;;7.78;;
12480;SDS011;6305;48.398;11.762;2023-05-08T01:59:24;11.05;;;7.93;;
12480;SDS011;6305;48.398;11.762;2023-05-08T02:01:53;9.98;;;7.57;;
12480;SDS011;6305;48.398;11.762;2023-05-08T02:04:23;12.15;;;7.90;;
12480;SDS011;6305;48.398;11.762;2023-05-08T02:06:52;11.00;;;8.68;;
12480;SDS011;6305;48.398;11.762;2023-05-08T02:09:21;11.13;;;8.32;;
12480;SDS011;6305;48.398;11.762;2023-05-08T02:11:51;12.10;;;8.80;;
12480;SDS011;6305;48.398;11.762;2023-05-08T02:14:19;11.98;;;8.43;;
12480;SDS011;6305;48.398;11.762;2023-05-08T02:16:47;12.05;;;8.60;;
12480;SDS011;6305;48.398;11.762;2023-05-08T02:19:16;12.90;;;8.60;;
12480;SDS011;6305;48.398;11.762;2023-05-08T02:21:47;12.48;;;8.60;;
12480;SDS011;6305;48.398;11.762;2023-05-08T02:24:16;11.68;;;8.77;;
12480;SDS011;6305;48.398;11.762;2023-05-08T02:26:44;14.57;;;8.52;;
12480;SDS011;6305;48.398;11.762;2023-05-08T02:29:12;11.48;;;8.43;;
12480;SDS011;6305;48.398;11.762;2023-05-08T02:31:41;11.80;;;8.15;;
12480;SDS011;6305;48.398;11.762;2023-05-08T02:34:10;12.90;;;8.63;;
12480;SDS011;6305;48.398;11.762;2023-05-08T02:36:38;12.52;;;9.00;;
12480;SDS011;6305;48.398;11.762;2023-05-08T02:39:07;11.52;;;8.93;;
12480;SDS011;6305;48.398;11.762;2023-05-08T02:41:38;12.00;;;8.43;;
12480;SDS011;6305;48.398;11.762;2023-05-08T02:44:07;11.50;;;8.40;;
12480;SDS011;6305;48.398;11.762;2023-05-08T02:46:35;13.20;;;9.00;;
12480;SDS011;6305;48.398;11.762;2023-05-08T02:49:12;9.63;;;8.20;;
12480;SDS011;6305;48.398;11.762;2023-05-08T02:51:52;11.45;;;8.43;;
12480;SDS011;6305;48.398;11.762;2023-05-08T02:54:29;13.60;;;9.05;;
12480;SDS011;6305;48.398;11.762;2023-05-08T02:57:02;12.70;;;8.85;;
12480;SDS011;6305;48.398;11.762;2023-05-08T02:59:38;12.40;;;9.30;;
12480;SDS011;6305;48.398;11.762;2023-05-08T03:02:11;11.23;;;8.50;;
12480;SDS011;6305;48.398;11.762;2023-05-08T03:04:41;12.60;;;9.32;;
12480;SDS011;6305;48.398;11.762;2023-05-08T03:07:12;11.40;;;8.85;;
12480;SDS011;6305;48.398;11.762;2023-05-08T03:09:43;11.73;;;8.75;;
12480;SDS011;6305;48.398;11.762;2023-05-08T03:12:13;14.55;;;8.82;;
12480;SDS011;6305;48.398;11.762;2023-05-08T03:14:43;11.20;;;8.35;;
12480;SDS011;6305;48.398;11.762;2023-05-08T03:17:15;11.65;;;8.10;;
12480;SDS011;6305;48.398;11.762;2023-05-08T03:19:45;10.95;;;8.73;;
12480;SDS011;6305;48.398;11.762;2023-05-08T03:22:16;12.68;;;8.80;;
12480;SDS011;6305;48.398;11.762;2023-05-08T03:24:47;11.45;;;8.13;;
12480;SDS011;6305;48.398;11.762;2023-05-08T03:27:15;12.13;;;9.35;;
12480;SDS011;6305;48.398;11.762;2023-05-08T03:29:44;9.93;;;7.70;;
12480;SDS011;6305;48.398;11.762;2023-05-08T03:32:12;12.73;;;8.63;;
12480;SDS011;6305;48.398;11.762;2023-05-08T03:34:40;10.75;;;7.70;;
12480;SDS011;6305;48.398;11.762;2023-05-08T03:37:07;11.70;;;8.18;;
12480;SDS011;6305;48.398;11.762;2023-05-08T03:39:34;12.43;;;8.68;;
12480;SDS011;6305;48.398;11.762;2023-05-08T03:42:03;11.15;;;8.40;;
12480;SDS011;6305;48.398;11.762;2023-05-08T03:44:30;10.30;;;8.27;;
12480;SDS011;6305;48.398;11.762;2023-05-08T03:46:58;9.95;;;8.00;;
12480;SDS011;6305;48.398;11.762;2023-05-08T03:49:26;10.32;;;7.93;;
12480;SDS011;6305;48.398;11.762;2023-05-08T03:51:55;10.15;;;7.97;;
12480;SDS011;6305;48.398;11.762;2023-05-08T03:54:24;9.27;;;7.20;;
12480;SDS011;6305;48.398;11.762;2023-05-08T03:56:53;10.38;;;7.65;;
12480;SDS011;6305;48.398;11.762;2023-05-08T03:59:24;11.07;;;8.20;;
12480;SDS011;6305;48.398;11.762;2023-05-08T04:01:58;11.77;;;8.32;;
12480;SDS011;6305;48.398;11.762;2023-05-08T04:04:38;11.93;;;8.05;;
12480;SDS011;6305;48.398;11.762;2023-05-08T04:07:11;11.15;;;7.95;;
12480;SDS011;6305;48.398;11.762;2023-05-08T04:09:48;10.82;;;8.32;;
12480;SDS011;6305;48.398;11.762;2023-05-08T04:12:24;10.52;;;7.75;;
12480;SDS011;6305;48.398;11.762;2023-05-08T04:15:00;12.10;;;8.18;;
12480;SDS011;6305;48.398;11.762;2023-05-08T04:17:33;10.38;;;7.85;;
12480;SDS011;6305;48.398;11.762;2023-05-08T04:20:07;8.70;;;6.97;;
12480;SDS011;6305;48.398;11.762;2023-05-08T04:22:39;10.43;;;8.07;;
12480;SDS011;6305;48.398;11.762;2023-05-08T04:25:08;11.10;;;8.18;;
12480;SDS011;6305;48.398;11.762;2023-05-08T04:27:36;9.90;;;7.75;;
12480;SDS011;6305;48.398;11.762;2023-05-08T04:30:07;9.50;;;7.72;;
12480;SDS011;6305;48.398;11.762;2023-05-08T04:32:35;10.75;;;8.05;;
12480;SDS011;6305;48.398;11.762;2023-05-08T04:35:04;8.43;;;7.13;;
12480;SDS011;6305;48.398;11.762;2023-05-08T04:37:32;9.88;;;7.78;;
12480;SDS011;6305;48.398;11.762;2023-05-08T04:40:01;9.15;;;7.38;;
12480;SDS011;6305;48.398;11.762;2023-05-08T04:42:30;10.15;;;7.53;;
12480;SDS011;6305;48.398;11.762;2023-05-08T04:44:59;10.65;;;7.70;;
12480;SDS011;6305;48.398;11.762;2023-05-08T04:47:28;8.88;;;7.55;;
12480;SDS011;6305;48.398;11.762;2023-05-08T04:49:55;10.15;;;8.18;;
12480;SDS011;6305;48.398;11.762;2023-05-08T04:52:23;10.63;;;7.95;;
12480;SDS011;6305;48.398;11.762;2023-05-08T04:54:50;9.52;;;7.13;;
12480;SDS011;6305;48.398;11.762;2023-05-08T04:57:17;9.13;;;7.57;;
12480;SDS011;6305;48.398;11.762;2023-05-08T04:59:45;9.77;;;7.65;;
12480;SDS011;6305;48.398;11.762;2023-05-08T05:02:12;9.60;;;7.28;;
12480;SDS011;6305;48.398;11.762;2023-05-08T05:04:41;9.23;;;7.43;;
12480;SDS011;6305;48.398;11.762;2023-05-08T05:07:08;9.07;;;7.47;;
12480;SDS011;6305;48.398;11.762;2023-05-08T05:09:36;11.02;;;8.35;;
12480;SDS011;6305;48.398;11.762;2023-05-08T05:12:04;10.63;;;8.00;;
12480;SDS011;6305;48.398;11.762;2023-05-08T05:14:32;9.65;;;7.40;;
12480;SDS011;6305;48.398;11.762;2023-05-08T05:17:00;11.95;;;8.35;;
12480;SDS011;6305;48.398;11.762;2023-05-08T05:19:27;9.07;;;7.43;;
12480;SDS011;6305;48.398;11.762;2023-05-08T05:21:56;10.18;;;8.40;;
12480;SDS011;6305;48.398;11.762;2023-05-08T05:24:24;10.80;;;8.10;;
12480;SDS011;6305;48.398;11.762;2023-05-08T05:26:51;9.95;;;7.82;;
12480;SDS011;6305;48.398;11.762;2023-05-08T05:29:18;10.20;;;7.43;;
12480;SDS011;6305;48.398;11.762;2023-05-08T05:31:45;8.45;;;7.28;;
12480;SDS011;6305;48.398;11.762;2023-05-08T05:34:13;8.80;;;7.45;;
12480;SDS011;6305;48.398;11.762;2023-05-08T05:36:40;9.90;;;7.85;;
12480;SDS011;6305;48.398;11.762;2023-05-08T05:39:08;8.30;;;7.25;;
12480;SDS011;6305;48.398;11.762;2023-05-08T05:41:35;9.00;;;7.45;;
12480;SDS011;6305;48.398;11.762;2023-05-08T05:44:03;10.32;;;7.72;;
12480;SDS011;6305;48.398;11.762;2023-05-08T05:46:30;9.15;;;7.57;;
12480;SDS011;6305;48.398;11.762;2023-05-08T05:48:59;8.40;;;7.45;;
12480;SDS011;6305;48.398;11.762;2023-05-08T05:51:27;11.13;;;7.50;;
12480;SDS011;6305;48.398;11.762;2023-05-08T05:53:54;12.10;;;8.90;;
12480;SDS011;6305;48.398;11.762;2023-05-08T05:56:23;11.25;;;8.27;;
12480;SDS011;6305;48.398;11.762;2023-05-08T05:58:51;11.55;;;8.10;;
12480;SDS011;6305;48.398;11.762;2023-05-08T06:01:18;10.45;;;8.48;;
12480;SDS011;6305;48.398;11.762;2023-05-08T06:03:45;12.65;;;8.63;;
12480;SDS011;6305;48.398;11.762;2023-05-08T06:06:12;9.60;;;8.25;;
12480;SDS011;6305;48.398;11.762;2023-05-08T06:08:39;11.13;;;8.65;;
12480;SDS011;6305;48.398;11.762;2023-05-08T06:11:06;10.40;;;8.57;;
12480;SDS011;6305;48.398;11.762;2023-05-08T06:13:35;11.88;;;8.73;;
12480;SDS011;6305;48.398;11.762;2023-05-08T06:16:04;12.02;;;8.90;;
12480;SDS011;6305;48.398;11.762;2023-05-08T06:18:32;10.40;;;8.23;;
12480;SDS011;6305;48.398;11.762;2023-05-08T06:20:59;12.40;;;9.02;;
12480;SDS011;6305;48.398;11.762;2023-05-08T06:23:26;10.90;;;8.43;;
12480;SDS011;6305;48.398;11.762;2023-05-08T06:25:53;9.52;;;8.02;;
12480;SDS011;6305;48.398;11.762;2023-05-08T06:28:20;8.95;;;7.82;;
12480;SDS011;6305;48.398;11.762;2023-05-08T06:30:51;10.27;;;8.02;;
12480;SDS011;6305;48.398;11.762;2023-05-08T06:33:18;10.15;;;7.82;;
12480;SDS011;6305;48.398;11.762;2023-05-08T06:35:45;8.82;;;7.40;;
12480;SDS011;6305;48.398;11.762;2023-05-08T06:38:12;8.57;;;7.38;;
12480;SDS011;6305;48.398;11.762;2023-05-08T06:40:40;8.43;;;7.30;;
12480;SDS011;6305;48.398;11.762;2023-05-08T06:43:09;8.77;;;7.82;;
12480;SDS011;6305;48.398;11.762;2023-05-08T06:45:36;9.85;;;7.60;;
12480;SDS011;6305;48.398;11.762;2023-05-08T06:48:05;10.32;;;7.25;;
12480;SDS011;6305;48.398;11.762;2023-05-08T06:50:32;9.07;;;7.43;;
12480;SDS011;6305;48.398;11.762;2023-05-08T06:52:59;8.27;;;7.20;;
12480;SDS011;6305;48.398;11.762;2023-05-08T06:55:26;8.20;;;6.72;;
12480;SDS011;6305;48.398;11.762;2023-05-08T06:57:53;7.50;;;6.80;;
12480;SDS011;6305;48.398;11.762;2023-05-08T07:00:20;8.07;;;7.10;;
12480;SDS011;6305;48.398;11.762;2023-05-08T07:02:47;8.55;;;6.60;;
12480;SDS011;6305;48.398;11.762;2023-05-08T07:05:15;9.02;;;7.35;;
12480;SDS011;6305;48.398;11.762;2023-05-08T07:07:43;9.55;;;8.18;;
12480;SDS011;6305;48.398;11.762;2023-05-08T07:10:11;9.10;;;6.82;;
12480;SDS011;6305;48.398;11.762;2023-05-08T07:12:38;8.60;;;7.45;;
12480;SDS011;6305;48.398;11.762;2023-05-08T07:15:06;8.40;;;7.03;;
12480;SDS011;6305;48.398;11.762;2023-05-08T07:17:34;8.48;;;6.90;;
12480;SDS011;6305;48.398;11.762;2023-05-08T07:20:02;8.85;;;7.80;;
12480;SDS011;6305;48.398;11.762;2023-05-08T07:22:31;8.65;;;7.45;;
12480;SDS011;6305;48.398;11.762;2023-05-08T07:24:58;7.97;;;7.15;;
12480;SDS011;6305;48.398;11.762;2023-05-08T07:27:25;8.45;;;7.50;;
12480;SDS011;6305;48.398;11.762;2023-05-08T07:29:52;12.27;;;7.80;;
12480;SDS011;6305;48.398;11.762;2023-05-08T07:32:19;8.98;;;7.68;;
12480;SDS011;6305;48.398;11.762;2023-05-08T07:34:46;8.38;;;7.22;;
12480;SDS011;6305;48.398;11.762;2023-05-08T07:37:13;11.23;;;7.70;;
12480;SDS011;6305;48.398;11.762;2023-05-08T07:39:41;8.90;;;7.88;;
12480;SDS011;6305;48.398;11.762;2023-05-08T07:42:08;9.00;;;8.10;;
12480;SDS011;6305;48.398;11.762;2023-05-08T07:44:35;8.98;;;8.07;;
12480;SDS011;6305;48.398;11.762;2023-05-08T07:47:02;9.25;;;7.50;;
12480;SDS011;6305;48.398;11.762;2023-05-08T07:49:29;10.13;;;8.07;;
12480;SDS011;6305;48.398;11.762;2023-05-08T07:51:56;9.82;;;8.07;;
12480;SDS011;6305;48.398;11.762;2023-05-08T07:54:23;10.80;;;8.20;;
12480;SDS011;6305;48.398;11.762;2023-05-08T07:56:51;9.55;;;7.80;;
12480;SDS011;6305;48.398;11.762;2023-05-08T07:59:18;9.77;;;7.88;;
12480;SDS011;6305;48.398;11.762;2023-05-08T08:01:45;8.40;;;7.50;;
12480;SDS011;6305;48.398;11.762;2023-05-08T08:04:12;12.65;;;7.40;;
12480;SDS011;6305;48.398;11.762;2023-05-08T08:06:39;9.15;;;7.60;;
12480;SDS011;6305;48.398;11.762;2023-05-08T08:09:06;13.73;;;8.73;;
12480;SDS011;6305;48.398;11.762;2023-05-08T08:11:33;9.13;;;7.80;;
12480;SDS011;6305;48.398;11.762;2023-05-08T08:14:01;9.45;;;7.85;;
12480;SDS011;6305;48.398;11.762;2023-05-08T08:16:28;9.15;;;7.82;;
12480;SDS011;6305;48.398;11.762;2023-05-08T08:18:55;10.07;;;7.85;;
12480;SDS011;6305;48.398;11.762;2023-05-08T08:21:22;9.38;;;8.00;;
12480;SDS011;6305;48.398;11.762;2023-05-08T08:23:48;8.85;;;7.60;;
12480;SDS011;6305;48.398;11.762;2023-05-08T08:26:15;8.85;;;7.68;;
12480;SDS011;6305;48.398;11.762;2023-05-08T08:28:42;8.85;;;7.32;;
12480;SDS011;6305;48.398;11.762;2023-05-08T08:31:11;8.77;;;7.70;;
12480;SDS011;6305;48.398;11.762;2023-05-08T08:33:37;9.25;;;7.97;;
12480;SDS011;6305;48.398;11.762;2023-05-08T08:36:05;9.77;;;8.07;;
12480;SDS011;6305;48.398;11.762;2023-05-08T08:38:38;9.07;;;8.23;;
12480;SDS011;6305;48.398;11.762;2023-05-08T08:41:05;8.75;;;7.85;;
12480;SDS011;6305;48.398;11.762;2023-05-08T08:43:32;9.48;;;8.13;;
12480;SDS011;6305;48.398;11.762;2023-05-08T08:46:00;10.18;;;8.68;;
12480;SDS011;6305;48.398;11.762;2023-05-08T08:48:35;9.32;;;8.30;;
12480;SDS011;6305;48.398;11.762;2023-05-08T08:51:05;10.45;;;7.80;;
12480;SDS011;6305;48.398;11.762;2023-05-08T08:53:34;8.25;;;7.00;;
12480;SDS011;6305;48.398;11.762;2023-05-08T08:56:07;9.60;;;8.60;;
12480;SDS011;6305;48.398;11.762;2023-05-08T08:58:37;8.10;;;7.30;;
12480;SDS011;6305;48.398;11.762;2023-05-08T09:01:11;9.15;;;8.15;;
12480;SDS011;6305;48.398;11.762;2023-05-08T09:03:43;8.32;;;7.18;;
12480;SDS011;6305;48.398;11.762;2023-05-08T09:06:10;8.75;;;7.85;;
12480;SDS011;6305;48.398;11.762;2023-05-08T09:08:39;9.35;;;8.23;;
12480;SDS011;6305;48.398;11.762;2023-05-08T09:11:06;7.97;;;7.28;;
12480;SDS011;6305;48.398;11.762;2023-05-08T09:13:33;7.20;;;6.50;;
12480;SDS011;6305;48.398;11.762;2023-05-08T09:16:00;8.40;;;7.40;;
12480;SDS011;6305;48.398;11.762;2023-05-08T09:18:27;8.75;;;7.22;;
12480;SDS011;6305;48.398;11.762;2023-05-08T09:20:56;8.68;;;7.88;;
12480;SDS011;6305;48.398;11.762;2023-05-08T09:23:24;9.18;;;8.27;;
12480;SDS011;6305;48.398;11.762;2023-05-08T09:25:51;8.32;;;7.53;;
12480;SDS011;6305;48.398;11.762;2023-05-08T09:28:19;8.95;;;7.57;;
12480;SDS011;6305;48.398;11.762;2023-05-08T09:30:47;7.97;;;7.13;;
12480;SDS011;6305;48.398;11.762;2023-05-08T09:33:16;9.27;;;7.75;;
12480;SDS011;6305;48.398;11.762;2023-05-08T09:35:44;8.35;;;7.60;;
12480;SDS011;6305;48.398;11.762;2023-05-08T09:38:32;8.60;;;7.80;;
12480;SDS011;6305;48.398;11.762;2023-05-08T09:41:10;8.57;;;7.47;;
12480;SDS011;6305;48.398;11.762;2023-05-08T09:43:39;8.75;;;7.95;;
12480;SDS011;6305;48.398;11.762;2023-05-08T09:46:18;8.63;;;7.82;;
12480;SDS011;6305;48.398;11.762;2023-05-08T09:48:47;8.48;;;7.57;;
12480;SDS011;6305;48.398;11.762;2023-05-08T09:51:14;7.80;;;7.05;;
12480;SDS011;6305;48.398;11.762;2023-05-08T09:53:42;7.75;;;7.05;;
12480;SDS011;6305;48.398;11.762;2023-05-08T09:56:10;8.40;;;7.60;;
12480;SDS011;6305;48.398;11.762;2023-05-08T09:58:37;9.10;;;8.30;;
12480;SDS011;6305;48.398;11.762;2023-05-08T10:01:05;9.13;;;8.23;;
12480;SDS011;6305;48.398;11.762;2023-05-08T10:03:47;8.15;;;7.45;;
12480;SDS011;6305;48.398;11.762;2023-05-08T10:06:15;7.63;;;6.93;;
12480;SDS011;6305;48.398;11.762;2023-05-08T10:08:44;8.82;;;7.93;;
12480;SDS011;6305;48.398;11.762;2023-05-08T10:11:12;8.10;;;7.30;;
12480;SDS011;6305;48.398;11.762;2023-05-08T10:13:41;9.60;;;8.48;;
12480;SDS011;6305;48.398;11.762;2023-05-08T10:16:08;9.00;;;8.10;;
12480;SDS011;6305;48.398;11.762;2023-05-08T10:18:41;8.45;;;7.65;;
12480;SDS011;6305;48.398;11.762;2023-05-08T10:21:14;8.80;;;7.90;;
12480;SDS011;6305;48.398;11.762;2023-05-08T10:23:42;12.70;;;8.13;;
12480;SDS011;6305;48.398;11.762;2023-05-08T10:26:12;8.55;;;7.75;;
12480;SDS011;6305;48.398;11.762;2023-05-08T10:28:47;8.80;;;7.70;;
12480;SDS011;6305;48.398;11.762;2023-05-08T10:31:16;7.75;;;7.10;;
12480;SDS011;6305;48.398;11.762;2023-05-08T10:33:44;9.23;;;7.57;;
12480;SDS011;6305;48.398;11.762;2023-05-08T10:36:12;8.35;;;7.45;;
12480;SDS011;6305;48.398;11.762;2023-05-08T10:38:40;8.98;;;8.18;;
12480;SDS011;6305;48.398;11.762;2023-05-08T10:41:10;8.63;;;7.82;;
12480;SDS011;6305;48.398;11.762;2023-05-08T10:43:40;7.82;;;7.13;;
12480;SDS011;6305;48.398;11.762;2023-05-08T10:46:09;9.00;;;8.15;;
12480;SDS011;6305;48.398;11.762;2023-05-08T10:48:44;8.38;;;7.60;;
12480;SDS011;6305;48.398;11.762;2023-05-08T10:51:20;7.78;;;7.05;;
12480;SDS011;6305;48.398;11.762;2023-05-08T10:53:54;7.80;;;7.07;;
12480;SDS011;6305;48.398;11.762;2023-05-08T10:56:28;8.00;;;7.20;;
12480;SDS011;6305;48.398;11.762;2023-05-08T10:58:55;8.10;;;7.30;;
12480;SDS011;6305;48.398;11.762;2023-05-08T11:01:23;8.40;;;7.50;;
12480;SDS011;6305;48.398;11.762;2023-05-08T11:03:51;9.00;;;8.15;;
12480;SDS011;6305;48.398;11.762;2023-05-08T11:09:09;9.65;;;8.65;;
12480;SDS011;6305;48.398;11.762;2023-05-08T11:11:48;9.60;;;8.70;;
12480;SDS011;6305;48.398;11.762;2023-05-08T11:14:22;8.45;;;7.70;;
12480;SDS011;6305;48.398;11.762;2023-05-08T11:17:02;7.93;;;7.13;;
12480;SDS011;6305;48.398;11.762;2023-05-08T11:19:32;8.18;;;7.28;;
12480;SDS011;6305;48.398;11.762;2023-05-08T11:22:13;8.43;;;7.63;;
12480;SDS011;6305;48.398;11.762;2023-05-08T11:24:53;8.93;;;8.13;;
12480;SDS011;6305;48.398;11.762;2023-05-08T11:27:33;9.00;;;8.10;;
12480;SDS011;6305;48.398;11.762;2023-05-08T11:32:54;10.07;;;9.07;;
12480;SDS011;6305;48.398;11.762;2023-05-08T11:35:40;8.65;;;7.85;;
12480;SDS011;6305;48.398;11.762;2023-05-08T11:38:21;9.23;;;8.32;;
12480;SDS011;6305;48.398;11.762;2023-05-08T11:40:54;8.07;;;7.30;;
12480;SDS011;6305;48.398;11.762;2023-05-08T11:43:25;9.10;;;8.20;;
12480;SDS011;6305;48.398;11.762;2023-05-08T11:45:59;9.52;;;8.57;;
12480;SDS011;6305;48.398;11.762;2023-05-08T11:48:27;9.02;;;7.22;;
12480;SDS011;6305;48.398;11.762;2023-05-08T11:50:54;8.88;;;7.97;;
12480;SDS011;6305;48.398;11.762;2023-05-08T11:53:22;9.13;;;8.27;;
12480;SDS011;6305;48.398;11.762;2023-05-08T11:55:50;9.00;;;8.10;;
12480;SDS011;6305;48.398;11.762;2023-05-08T11:58:18;8.52;;;7.60;;
12480;SDS011;6305;48.398;11.762;2023-05-08T12:00:47;8.27;;;7.50;;
12480;SDS011;6305;48.398;11.762;2023-05-08T12:03:15;8.75;;;7.85;;
12480;SDS011;6305;48.398;11.762;2023-05-08T12:05:42;8.15;;;7.38;;
12480;SDS011;6305;48.398;11.762;2023-05-08T12:08:10;9.40;;;8.50;;
12480;SDS011;6305;48.398;11.762;2023-05-08T12:10:39;9.10;;;8.20;;
12480;SDS011;6305;48.398;11.762;2023-05-08T12:13:14;9.40;;;8.55;;
12480;SDS011;6305;48.398;11.762;2023-05-08T12:15:42;10.40;;;8.50;;
12480;SDS011;6305;48.398;11.762;2023-05-08T12:18:10;8.43;;;7.60;;
12480;SDS011;6305;48.398;11.762;2023-05-08T12:20:37;7.63;;;6.93;;
12480;SDS011;6305;48.398;11.762;2023-05-08T12:23:04;9.02;;;8.13;;
12480;SDS011;6305;48.398;11.762;2023-05-08T12:25:31;10.27;;;9.27;;
12480;SDS011;6305;48.398;11.762;2023-05-08T12:27:58;9.52;;;8.60;;
12480;SDS011;6305;48.398;11.762;2023-05-08T12:30:25;11.30;;;10.02;;
12480;SDS011;6305;48.398;11.762;2023-05-08T12:32:52;10.25;;;9.25;;
12480;SDS011;6305;48.398;11.762;2023-05-08T12:35:21;9.50;;;8.50;;
12480;SDS011;6305;48.398;11.762;2023-05-08T12:37:49;8.32;;;7.50;;
12480;SDS011;6305;48.398;11.762;2023-05-08T12:40:26;9.60;;;8.50;;
12480;SDS011;6305;48.398;11.762;2023-05-08T12:42:55;9.93;;;9.00;;
12480;SDS011;6305;48.398;11.762;2023-05-08T12:45:23;9.73;;;8.73;;
12480;SDS011;6305;48.398;11.762;2023-05-08T12:47:53;10.30;;;8.95;;
12480;SDS011;6305;48.398;11.762;2023-05-08T12:50:25;10.50;;;9.48;;
12480;SDS011;6305;48.398;11.762;2023-05-08T12:53:00;9.02;;;8.13;;
12480;SDS011;6305;48.398;11.762;2023-05-08T12:55:29;8.57;;;7.78;;
12480;SDS011;6305;48.398;11.762;2023-05-08T12:58:00;9.40;;;8.50;;
12480;SDS011;6305;48.398;11.762;2023-05-08T13:00:33;9.93;;;8.93;;
12480;SDS011;6305;48.398;11.762;2023-05-08T13:03:02;9.98;;;8.85;;
12480;SDS011;6305;48.398;11.762;2023-05-08T13:05:31;10.15;;;9.15;;
12480;SDS011;6305;48.398;11.762;2023-05-08T13:07:58;11.07;;;9.98;;
12480;SDS011;6305;48.398;11.762;2023-05-08T13:13:08;10.52;;;9.50;;
12480;SDS011;6305;48.398;11.762;2023-05-08T13:15:35;10.73;;;9.55;;
12480;SDS011;6305;48.398;11.762;2023-05-08T13:18:02;10.63;;;9.55;;
12480;SDS011;6305;48.398;11.762;2023-05-08T13:20:31;11.13;;;10.02;;
12480;SDS011;6305;48.398;11.762;2023-05-08T13:22:58;11.02;;;9.93;;
12480;SDS011;6305;48.398;11.762;2023-05-08T13:25:25;10.80;;;9.70;;
12480;SDS011;6305;48.398;11.762;2023-05-08T13:27:52;10.50;;;9.38;;
12480;SDS011;6305;48.398;11.762;2023-05-08T13:30:20;11.43;;;9.77;;
12480;SDS011;6305;48.398;11.762;2023-05-08T13:32:48;10.50;;;9.40;;
12480;SDS011;6305;48.398;11.762;2023-05-08T13:35:15;11.55;;;9.60;;
12480;SDS011;6305;48.398;11.762;2023-05-08T13:37:43;9.57;;;8.15;;
12480;SDS011;6305;48.398;11.762;2023-05-08T13:40:11;9.73;;;8.73;;
12480;SDS011;6305;48.398;11.762;2023-05-08T13:42:39;10.75;;;9.68;;
12480;SDS011;6305;48.398;11.762;2023-05-08T13:45:06;11.02;;;8.90;;
12480;SDS011;6305;48.398;11.762;2023-05-08T13:47:37;9.30;;;8.40;;
12480;SDS011;6305;48.398;11.762;2023-05-08T13:50:04;10.30;;;9.30;;
12480;SDS011;6305;48.398;11.762;2023-05-08T13:52:32;9.90;;;8.90;;
12480;SDS011;6305;48.398;11.762;2023-05-08T13:55:01;8.98;;;8.07;;
12480;SDS011;6305;48.398;11.762;2023-05-08T13:57:28;10.15;;;9.15;;
12480;SDS011;6305;48.398;11.762;2023-05-08T13:59:55;9.93;;;8.85;;
12480;SDS011;6305;48.398;11.762;2023-05-08T14:02:23;10.52;;;9.43;;
12480;SDS011;6305;48.398;11.762;2023-05-08T14:04:49;10.60;;;9.52;;
12480;SDS011;6305;48.398;11.762;2023-05-08T14:07:16;11.40;;;9.02;;
12480;SDS011;6305;48.398;11.762;2023-05-08T14:09:43;9.13;;;8.23;;
12480;SDS011;6305;48.398;11.762;2023-05-08T14:12:12;8.98;;;8.07;;
12480;SDS011;6305;48.398;11.762;2023-05-08T14:14:39;9.30;;;7.13;;
12480;SDS011;6305;48.398;11.762;2023-05-08T14:17:06;9.10;;;7.68;;
12480;SDS011;6305;48.398;11.762;2023-05-08T14:19:34;10.25;;;8.52;;
12480;SDS011;6305;48.398;11.762;2023-05-08T14:22:01;9.55;;;8.50;;
12480;SDS011;6305;48.398;11.762;2023-05-08T14:24:28;8.35;;;7.55;;
12480;SDS011;6305;48.398;11.762;2023-05-08T14:26:56;8.38;;;7.55;;
12480;SDS011;6305;48.398;11.762;2023-05-08T14:29:25;8.18;;;6.78;;
12480;SDS011;6305;48.398;11.762;2023-05-08T14:31:52;7.47;;;6.75;;
12480;SDS011;6305;48.398;11.762;2023-05-08T14:34:19;7.53;;;6.15;;
12480;SDS011;6305;48.398;11.762;2023-05-08T14:36:46;6.78;;;6.03;;
12480;SDS011;6305;48.398;11.762;2023-05-08T14:39:13;6.65;;;6.03;;
12480;SDS011;6305;48.398;11.762;2023-05-08T14:41:40;8.25;;;7.03;;
12480;SDS011;6305;48.398;11.762;2023-05-08T14:44:07;8.00;;;7.20;;
12480;SDS011;6305;48.398;11.762;2023-05-08T14:46:35;7.55;;;6.72;;
12480;SDS011;6305;48.398;11.762;2023-05-08T14:49:02;7.88;;;6.90;;
12480;SDS011;6305;48.398;11.762;2023-05-08T14:51:30;7.13;;;6.43;;
12480;SDS011;6305;48.398;11.762;2023-05-08T14:53:56;8.77;;;6.78;;
12480;SDS011;6305;48.398;11.762;2023-05-08T14:56:24;7.15;;;6.45;;
12480;SDS011;6305;48.398;11.762;2023-05-08T14:58:51;6.97;;;6.38;;
12480;SDS011;6305;48.398;11.762;2023-05-08T15:01:19;6.03;;;4.68;;
12480;SDS011;6305;48.398;11.762;2023-05-08T15:03:48;5.03;;;4.53;;